Archival Weather

Chicago O'Hare International

Chicago, Illinois (KORD)

Report from: Tuesday, August 16, 2022 4:51 AM CDT
Current time: Sunday, February 25, 2024 3:58 PM CST

Current weather – Weather history – Daily summaries
Weather forecast

Temperature16.7°C (62.1°F)
Dew point15.6°C (60.1°F)
Winds 6 kts (3.1 m/s, 6.9 mph) North (350°)
Visibility10 mi. (16.1 km)
Clouds Few clouds 25,000 ft. (7,620 m)
Altimeter30.07 in.Hg (1018 mB)
Relative humidity93 %
Density altitude280 ft. (85 m)
Sea-level pressure101.8 kPa (1018 mB, 30.06 in.Hg)
Remarks Automated weather observing station with precipitation discriminator
Flight conditions Visual Meteorological Conditions
Raw dataKORD 160951Z 35006KT 10SM FEW250 17/16 A3007 RMK AO2 SLP181 T01670156
An error has occurred. This application may no longer respond until reloaded. Reload 🗙